Time,TemperatureF,DewpointF,PressureIn,WindDirection,WindDirectionDegrees,WindSpeedMPH,WindSpeedGustMPH,Humidity,HourlyPrecipIn,Conditions,Clouds,dailyrainin,SolarRadiationWatts/m^2,SoftwareType,DateUTC
2013-10-21 00:00:00,56.0,43.0,-100.00,SSW,202,8.0,-999.0,61,-99.99,,,-99.99,0.000000,,2013-10-21 04:00:00,
2013-10-21 00:44:00,56.0,43.0,-100.00,SSW,202,8.0,-999.0,61,-99.99,,,-99.99,0.000000,,2013-10-21 04:44:00,
2013-10-21 00:54:00,56.0,43.0,-100.00,SSW,202,8.0,-999.0,61,-99.99,,,-99.99,0.000000,,2013-10-21 04:54:00,
2013-10-21 01:00:00,55.0,43.0,-100.00,SSW,202,7.0,-999.0,64,-99.99,,,-99.99,0.000000,,2013-10-21 05:00:00,
2013-10-21 01:43:00,55.0,43.0,-100.00,SSW,202,7.0,-999.0,64,-99.99,,,-99.99,0.000000,,2013-10-21 05:43:00,
2013-10-21 01:52:00,55.0,43.0,-100.00,SSW,202,7.0,-999.0,64,-99.99,,,-99.99,0.000000,,2013-10-21 05:52:00,
2013-10-21 02:00:00,53.0,43.0,-100.00,SSW,202,5.0,-999.0,68,-99.99,,,-99.99,0.000000,,2013-10-21 06:00:00,
2013-10-21 02:42:00,53.0,43.0,-100.00,SSW,202,5.0,-999.0,68,-99.99,,,-99.99,0.000000,,2013-10-21 06:42:00,
2013-10-21 02:52:00,53.0,43.0,-100.00,SSW,202,5.0,-999.0,68,-99.99,,,-99.99,0.000000,,2013-10-21 06:52:00,
2013-10-21 03:00:00,53.0,44.0,-100.00,SW,225,4.0,-999.0,70,-99.99,,,-99.99,0.000000,,2013-10-21 07:00:00,
2013-10-21 03:43:00,53.0,44.0,-100.00,SW,225,4.0,-999.0,70,-99.99,,,-99.99,0.000000,,2013-10-21 07:43:00,
2013-10-21 03:52:00,53.0,44.0,-100.00,SW,225,4.0,-999.0,70,-99.99,,,-99.99,0.000000,,2013-10-21 07:52:00,
2013-10-21 04:00:00,53.0,45.0,-100.00,SSW,202,4.0,-999.0,73,-99.99,,,-99.99,0.000000,,2013-10-21 08:00:00,
2013-10-21 04:42:00,53.0,45.0,-100.00,SSW,202,4.0,-999.0,73,-99.99,,,-99.99,0.000000,,2013-10-21 08:42:00,
2013-10-21 04:52:00,53.0,45.0,-100.00,SSW,202,4.0,-999.0,73,-99.99,,,-99.99,0.000000,,2013-10-21 08:52:00,
2013-10-21 05:00:00,53.0,44.0,-100.00,SW,225,4.0,-999.0,73,-99.99,,,-99.99,0.000000,,2013-10-21 09:00:00,
2013-10-21 05:43:00,53.0,44.0,-100.00,SW,225,4.0,-999.0,73,-99.99,,,-99.99,0.000000,,2013-10-21 09:43:00,
2013-10-21 05:54:00,53.0,44.0,-100.00,SW,225,4.0,-999.0,73,-99.99,,,-99.99,0.000000,,2013-10-21 09:54:00,
2013-10-21 06:00:00,52.0,45.0,-100.00,SSW,202,3.0,-999.0,77,-99.99,,,-99.99,0.000000,,2013-10-21 10:00:00,
2013-10-21 06:43:00,52.0,45.0,-100.00,SSW,202,3.0,-999.0,77,-99.99,,,-99.99,0.000000,,2013-10-21 10:43:00,
2013-10-21 06:53:00,52.0,45.0,-100.00,SSW,202,3.0,-999.0,77,-99.99,,,-99.99,0.000000,,2013-10-21 10:53:00,
2013-10-21 07:00:00,51.0,45.0,-100.00,SW,225,2.0,-999.0,79,-99.99,,,-99.99,0.000000,,2013-10-21 11:00:00,
2013-10-21 07:42:00,51.0,45.0,-100.00,SW,225,2.0,-999.0,79,-99.99,,,-99.99,0.000000,,2013-10-21 11:42:00,
2013-10-21 07:52:00,51.0,45.0,-100.00,SW,225,2.0,-999.0,79,-99.99,,,-99.99,0.000000,,2013-10-21 11:52:00,
2013-10-21 08:00:00,50.0,45.0,-100.00,SW,225,2.0,-999.0,81,-99.99,,,-99.99,0.000000,,2013-10-21 12:00:00,
2013-10-21 08:42:00,50.0,45.0,-100.00,SW,225,2.0,-999.0,81,-99.99,,,-99.99,0.000000,,2013-10-21 12:42:00,
2013-10-21 08:52:00,50.0,45.0,-100.00,SW,225,2.0,-999.0,81,-99.99,,,-99.99,0.000000,,2013-10-21 12:52:00,
2013-10-21 09:00:00,50.0,46.0,-100.00,SSW,202,2.0,-999.0,85,-99.99,,,-99.99,8.120000,,2013-10-21 13:00:00,
2013-10-21 09:42:00,50.0,46.0,-100.00,SSW,202,2.0,-999.0,85,-99.99,,,-99.99,8.120000,,2013-10-21 13:42:00,
2013-10-21 09:52:00,50.0,46.0,-100.00,SSW,202,2.0,-999.0,85,-99.99,,,-99.99,8.120000,,2013-10-21 13:52:00,
2013-10-21 10:00:00,50.0,47.0,-100.00,SSW,202,3.0,-999.0,88,0.01,,,-99.99,35.959999,,2013-10-21 14:00:00,
2013-10-21 10:42:00,50.0,47.0,-100.00,SSW,202,3.0,-999.0,88,0.01,,,-99.99,35.959999,,2013-10-21 14:42:00,
2013-10-21 10:52:00,50.0,47.0,-100.00,SSW,202,3.0,-999.0,88,0.01,,,-99.99,35.959999,,2013-10-21 14:52:00,
2013-10-21 11:00:00,50.0,47.0,-100.00,SW,225,4.0,-999.0,90,-99.99,,,-99.99,97.440002,,2013-10-21 15:00:00,
2013-10-21 11:43:00,50.0,47.0,-100.00,SW,225,4.0,-999.0,90,-99.99,,,-99.99,97.440002,,2013-10-21 15:43:00,
2013-10-21 11:54:00,50.0,47.0,-100.00,SW,225,4.0,-999.0,90,-99.99,,,-99.99,97.440002,,2013-10-21 15:54:00,
2013-10-21 12:00:00,51.0,48.0,-100.00,SW,225,5.0,-999.0,88,-99.99,,,-99.99,183.279999,,2013-10-21 16:00:00,
2013-10-21 12:43:00,51.0,48.0,-100.00,SW,225,5.0,-999.0,88,-99.99,,,-99.99,183.279999,,2013-10-21 16:43:00,
2013-10-21 12:54:00,51.0,48.0,-100.00,SW,225,5.0,-999.0,88,-99.99,,,-99.99,183.279999,,2013-10-21 16:54:00,
2013-10-21 13:00:00,52.0,46.0,-100.00,WSW,247,5.0,-999.0,80,-99.99,,,-99.99,133.399994,,2013-10-21 17:00:00,
2013-10-21 13:43:00,52.0,46.0,-100.00,WSW,247,5.0,-999.0,80,-99.99,,,-99.99,133.399994,,2013-10-21 17:43:00,
2013-10-21 13:53:00,52.0,46.0,-100.00,WSW,247,5.0,-999.0,80,-99.99,,,-99.99,133.399994,,2013-10-21 17:53:00,
2013-10-21 14:00:00,49.0,44.0,-100.00,West,270,7.0,-999.0,81,-99.99,,,-99.99,119.480003,,2013-10-21 18:00:00,
2013-10-21 14:42:00,49.0,44.0,-100.00,West,270,7.0,-999.0,81,-99.99,,,-99.99,119.480003,,2013-10-21 18:42:00,
2013-10-21 14:52:00,49.0,44.0,-100.00,West,270,7.0,-999.0,81,-99.99,,,-99.99,119.480003,,2013-10-21 18:52:00,
2013-10-21 15:00:00,48.0,43.0,-100.00,West,270,6.0,-999.0,81,-99.99,,,-99.99,172.839996,,2013-10-21 19:00:00,
2013-10-21 15:42:00,48.0,43.0,-100.00,West,270,6.0,-999.0,81,-99.99,,,-99.99,172.839996,,2013-10-21 19:42:00,
2013-10-21 15:52:00,48.0,43.0,-100.00,West,270,6.0,-999.0,81,-99.99,,,-99.99,172.839996,,2013-10-21 19:52:00,
2013-10-21 16:00:00,49.0,42.0,-100.00,West,270,6.0,-999.0,75,-99.99,,,-99.99,215.759995,,2013-10-21 20:00:00,
2013-10-21 16:43:00,49.0,42.0,-100.00,West,270,6.0,-999.0,75,-99.99,,,-99.99,215.759995,,2013-10-21 20:43:00,
2013-10-21 16:53:00,49.0,42.0,-100.00,West,270,6.0,-999.0,75,-99.99,,,-99.99,215.759995,,2013-10-21 20:53:00,
2013-10-21 17:00:00,48.0,40.0,-100.00,WNW,292,8.0,-999.0,73,-99.99,,,-99.99,175.160004,,2013-10-21 21:00:00,
2013-10-21 17:44:00,48.0,40.0,-100.00,WNW,292,8.0,-999.0,73,-99.99,,,-99.99,175.160004,,2013-10-21 21:44:00,
2013-10-21 17:54:00,48.0,40.0,-100.00,WNW,292,8.0,-999.0,73,-99.99,,,-99.99,175.160004,,2013-10-21 21:54:00,
2013-10-21 18:00:00,46.0,37.0,-100.00,West,270,7.0,-999.0,69,-99.99,,,-99.99,73.080002,,2013-10-21 22:00:00,
2013-10-21 18:44:00,46.0,37.0,-100.00,West,270,7.0,-999.0,69,-99.99,,,-99.99,73.080002,,2013-10-21 22:44:00,
2013-10-21 18:54:00,46.0,37.0,-100.00,West,270,7.0,-999.0,69,-99.99,,,-99.99,73.080002,,2013-10-21 22:54:00,
2013-10-21 19:00:00,45.0,34.0,-100.00,WSW,247,3.0,-999.0,65,-99.99,,,-99.99,16.240000,,2013-10-21 23:00:00,
2013-10-21 19:42:00,45.0,34.0,-100.00,WSW,247,3.0,-999.0,65,-99.99,,,-99.99,16.240000,,2013-10-21 23:42:00,
2013-10-21 19:53:00,45.0,34.0,-100.00,WSW,247,3.0,-999.0,65,-99.99,,,-99.99,16.240000,,2013-10-21 23:53:00,
2013-10-21 20:00:00,43.0,34.0,-100.00,SW,225,2.0,-999.0,72,-99.99,,,-99.99,0.000000,,2013-10-22 00:00:00,
2013-10-21 20:42:00,43.0,34.0,-100.00,SW,225,2.0,-999.0,72,-99.99,,,-99.99,0.000000,,2013-10-22 00:42:00,
2013-10-21 20:53:00,43.0,34.0,-100.00,SW,225,2.0,-999.0,72,-99.99,,,-99.99,0.000000,,2013-10-22 00:53:00,
2013-10-21 21:00:00,42.0,35.0,-100.00,SW,225,3.0,-999.0,74,-99.99,,,-99.99,0.000000,,2013-10-22 01:00:00,
2013-10-21 21:42:00,42.0,35.0,-100.00,SW,225,3.0,-999.0,74,-99.99,,,-99.99,0.000000,,2013-10-22 01:42:00,
2013-10-21 21:53:00,42.0,35.0,-100.00,SW,225,3.0,-999.0,74,-99.99,,,-99.99,0.000000,,2013-10-22 01:53:00,
2013-10-21 22:00:00,43.0,32.0,-100.00,West,270,7.0,-999.0,64,-99.99,,,-99.99,0.000000,,2013-10-22 02:00:00,
2013-10-21 22:43:00,43.0,32.0,-100.00,West,270,7.0,-999.0,64,-99.99,,,-99.99,0.000000,,2013-10-22 02:43:00,
2013-10-21 22:52:00,43.0,32.0,-100.00,West,270,7.0,-999.0,64,-99.99,,,-99.99,0.000000,,2013-10-22 02:52:00,
2013-10-21 23:00:00,42.0,29.0,-100.00,West,270,9.0,-999.0,60,-99.99,,,-99.99,0.000000,,2013-10-22 03:00:00,
2013-10-21 23:45:00,42.0,29.0,-100.00,West,270,9.0,-999.0,60,-99.99,,,-99.99,0.000000,,2013-10-22 03:45:00,
2013-10-21 23:55:00,42.0,29.0,-100.00,West,270,9.0,-999.0,60,-99.99,,,-99.99,0.000000,,2013-10-22 03:55:00,